Latest Weather Observations for Kingscote

IDS60801

Issued at 6:41 am CDT Tuesday 7 December 2021 (issued every 10 minutes, with the page automatically refreshed every 10 minutes)

About weather observations | Map of weather stations | Latest weather observations for SA | Other Formats
Station Details ID: 022841 Name: KINGSCOTE AERO Lat: -35.71 Lon: 137.52 Height: 6.23 m
Data from the previous 72 hours. | See also: Recent months at Kingscote
Date/Time
CDT
Temp
°C
App
Temp
°C
Dew
Point
°C
Rel
Hum
%
Delta-T
°C
Wind Press
QNH
hPa
Press
MSL
hPa
Rain since
9am
mm
Dir  Spd
km/h
Gust
km/h
Spd
kts
Gust
kts
07/06:30am 8.1 6.2 6.7 91 0.6 SW 6 7 3 4 1016.1 1016.1 0.4
07/06:00am 8.2 6.0 6.2 87 0.9 SW 7 9 4 5 1015.8 1015.8 0.4
07/05:30am 9.4 6.7 7.3 87 1.0 SW 11 17 6 9 1015.6 1015.6 0.4
07/05:00am 9.1 5.9 6.7 85 1.1 SW 13 15 7 8 1015.2 1015.2 0.4
07/04:30am 11.2 8.7 8.1 81 1.5 SSW 11 15 6 8 1015.0 1015.0 0.4
07/04:00am 12.2 9.1 8.9 80 1.6 SSW 15 19 8 10 1014.8 1014.8 0.4
07/03:30am 12.7 11.3 10.8 88 1.0 SW 9 11 5 6 1014.8 1014.8 0.4
07/03:00am 12.8 10.6 10.7 87 1.1 SSW 13 15 7 8 1014.7 1014.7 0.4
07/02:30am 13.1 10.6 11.0 87 1.1 SSW 15 20 8 11 1014.7 1014.7 0.4
07/02:00am 13.2 10.4 11.4 89 1.0 SSW 17 20 9 11 1014.8 1014.8 0.4
07/01:30am 13.3 10.8 12.2 93 0.6 SSW 17 22 9 12 1014.8 1014.8 0.4
07/01:24am 13.3 10.8 12.4 94 0.5 SSW 17 22 9 12 1014.8 1014.8 0.4
07/01:02am 13.4 11.4 12.8 96 0.3 SSW 15 24 8 13 1014.8 1014.8 0.4
07/01:00am 13.4 11.8 12.8 96 0.3 SSW 13 24 7 13 1014.8 1014.8 0.4
07/12:46am 13.1 11.7 12.3 95 0.4 WSW 11 20 6 11 1014.8 1014.8 0.4
07/12:34am 13.0 11.6 12.2 95 0.4 WSW 11 15 6 8 1014.8 1014.8 0.0
07/12:30am 13.0 11.6 12.1 94 0.5 WSW 11 15 6 8 1014.8 1014.8 0.0
07/12:19am 12.9 11.0 11.8 93 0.6 WSW 13 17 7 9 1014.8 1014.8 0.0
07/12:06am 12.6 10.0 10.8 89 0.9 WSW 15 20 8 11 1014.9 1014.9 0.0
07/12:00am 13.0 11.2 10.9 87 1.1 WSW 11 20 6 11 1014.8 1014.8 0.0
 
Date/Time
CDT
Temp
°C
App
Temp
°C
Dew
Point
°C
Rel
Hum
%
Delta-T
°C
Wind Press
QNH
hPa
Press
MSL
hPa
Rain since
9am
mm
Dir  Spd
km/h
Gust
km/h
Spd
kts
Gust
kts
06/11:30pm 12.2 9.7 9.8 85 1.2 WSW 13 15 7 8 1014.6 1014.6 0.0
06/11:00pm 12.8 11.2 10.3 85 1.3 SW 9 11 5 6 1014.6 1014.6 0.0
06/10:30pm 13.0 10.6 10.0 82 1.5 SW 13 17 7 9 1014.7 1014.7 0.0
06/10:00pm 13.5 11.4 9.9 79 1.9 SW 11 13 6 7 1014.4 1014.4 0.0
06/09:30pm 14.2 11.1 10.2 77 2.1 SW 17 22 9 12 1014.1 1014.1 0.0
06/09:00pm 14.7 12.2 9.7 72 2.6 SSW 13 17 7 9 1013.9 1013.9 0.0
06/08:30pm 15.2 12.4 10.0 71 2.7 SW 15 20 8 11 1013.8 1013.8 0.0
06/08:00pm 16.5 11.9 9.7 64 3.6 SW 24 35 13 19 1013.4 1013.4 0.0
06/07:30pm 17.8 12.1 9.7 59 4.3 SSW 30 41 16 22 1013.0 1013.0 0.0
06/07:00pm 19.0 13.5 9.2 53 5.1 SSW 28 35 15 19 1012.5 1012.5 0.0
06/06:30pm 19.6 14.1 9.2 51 5.5 SSW 28 35 15 19 1012.2 1012.2 0.0
06/06:00pm 20.2 13.6 7.9 45 6.4 SW 32 41 17 22 1012.0 1012.0 0.0
06/05:30pm 21.2 15.6 8.8 45 6.6 SSW 28 43 15 23 1011.9 1011.9 0.0
06/05:00pm 21.3 15.9 9.5 47 6.3 SSW 28 37 15 20 1012.0 1012.0 0.0
06/04:30pm 21.7 16.5 10.2 48 6.3 SSW 28 39 15 21 1012.0 1012.0 0.0
06/04:00pm 21.7 17.0 10.8 50 6.0 SSW 26 35 14 19 1012.1 1012.1 0.0
06/03:30pm 21.5 16.5 9.7 47 6.4 SSW 26 32 14 17 1012.1 1012.1 0.0
06/03:00pm 22.7 18.2 10.2 45 6.8 S 24 33 13 18 1012.0 1012.0 0.0
06/02:30pm 23.9 19.9 10.6 43 7.4 S 22 32 12 17 1012.2 1012.2 0.0
06/02:00pm 23.6 19.6 10.6 44 7.2 SSE 22 30 12 16 1012.2 1012.2 0.0
06/01:30pm 23.5 20.5 10.6 44 7.1 S 17 32 9 17 1012.2 1012.2 0.0
06/01:00pm 23.3 20.8 11.0 46 6.8 SSW 15 24 8 13 1012.2 1012.2 0.0
06/12:30pm 23.0 19.9 10.4 45 6.9 SSW 17 28 9 15 1012.5 1012.5 0.0
06/12:00pm 22.9 18.6 10.7 46 6.7 SSW 24 39 13 21 1012.7 1012.7 0.0
06/11:30am 23.2 20.7 9.6 42 7.4 W 13 24 7 13 1012.8 1012.8 0.0
06/11:00am 21.3 19.7 10.2 49 6.0 W 9 17 5 9 1012.6 1012.6 0.0
06/10:30am 20.9 18.8 11.0 53 5.4 SSW 13 20 7 11 1013.2 1013.2 0.0
06/10:00am 19.7 16.7 10.7 56 4.9 SSW 17 24 9 13 1013.4 1013.4 0.0
06/09:30am 18.6 17.2 10.9 61 4.2 SSE 9 17 5 9 1013.3 1013.3 0.0
06/09:00am 17.6 16.3 11.2 66 3.5 S 9 15 5 8 1013.4 1013.4 0.0
06/08:30am 16.3 14.3 11.5 73 2.6 S 13 17 7 9 1013.4 1013.4 0.0
06/08:00am 14.8 13.3 11.9 83 1.6 SSW 11 15 6 8 1013.4 1013.4 0.0
06/07:30am 11.4 10.4 10.9 97 0.3 SW 7 9 4 5 1013.3 1013.3 0.0
06/07:00am 9.5 8.0 9.0 97 0.2 WSW 7 7 4 4 1013.1 1013.1 0.0
06/06:30am 7.0 4.9 6.6 97 0.2 WSW 7 9 4 5 1013.2 1013.2 0.0
06/06:20am 6.7 4.5 6.1 96 0.3 WSW 7 9 4 5 1013.2 1013.2 0.0
06/06:00am 6.6 4.0 6.0 96 0.3 SW 9 11 5 6 1013.3 1013.3 0.0
06/05:30am 7.6 6.9 7.0 96 0.3 CALM 0 0 0 0 1013.1 1013.1 0.0
06/05:00am 8.0 6.3 7.4 96 0.3 SW 6 6 3 3 1013.1 1013.1 0.0
06/04:30am 7.5 5.1 6.9 96 0.3 SSW 9 9 5 5 1013.4 1013.4 0.0
06/04:00am 7.6 5.6 6.9 95 0.3 SW 7 9 4 5 1013.6 1013.6 0.0
06/03:30am 8.0 5.3 7.2 95 0.4 SW 11 11 6 6 1013.9 1013.9 0.0
06/03:00am 8.2 5.9 7.4 95 0.4 SW 9 11 5 6 1014.0 1014.0 0.0
06/02:30am 8.7 6.1 7.9 95 0.4 SSW 11 13 6 7 1014.1 1014.1 0.0
06/02:00am 8.8 6.2 7.9 94 0.4 SSW 11 11 6 6 1014.5 1014.5 0.0
06/01:30am 8.8 6.6 7.7 93 0.5 SSW 9 11 5 6 1014.7 1014.7 0.0
06/01:00am 9.2 6.7 8.3 94 0.4 SSW 11 11 6 6 1015.1 1015.1 0.0
06/12:30am 8.3 4.8 7.1 92 0.6 SW 15 17 8 9 1015.4 1015.4 0.0
06/12:00am 9.3 7.5 7.9 91 0.7 SW 7 9 4 5 1015.7 1015.7 0.0
 
Date/Time
CDT
Temp
°C
App
Temp
°C
Dew
Point
°C
Rel
Hum
%
Delta-T
°C
Wind Press
QNH
hPa
Press
MSL
hPa
Rain since
9am
mm
Dir  Spd
km/h
Gust
km/h
Spd
kts
Gust
kts
05/11:30pm 9.7 7.9 8.0 89 0.8 SSW 7 7 4 4 1015.8 1015.8 0.0
05/11:00pm 10.3 8.1 7.7 84 1.2 SSW 9 11 5 6 1016.1 1016.1 0.0
05/10:30pm 12.0 10.1 9.2 83 1.4 SSE 9 11 5 6 1016.3 1016.3 0.0
05/10:00pm 12.6 10.7 9.2 80 1.7 SSE 9 11 5 6 1016.4 1016.4 0.0
05/09:30pm 13.2 11.0 9.3 77 2.0 SSE 11 15 6 8 1016.4 1016.4 0.0
05/09:00pm 13.7 11.1 9.4 75 2.2 SE 13 19 7 10 1016.4 1016.4 0.0
05/08:30pm 14.4 10.7 9.6 73 2.5 SE 19 24 10 13 1016.6 1016.6 0.0
05/08:00pm 14.6 11.5 9.0 69 2.9 SE 15 22 8 12 1016.6 1016.6 0.0
05/07:30pm 15.2 10.5 9.1 67 3.1 SE 24 32 13 17 1016.6 1016.6 0.0
05/07:00pm 15.7 11.3 9.1 65 3.4 SSE 22 32 12 17 1016.5 1016.5 0.0
05/06:30pm 15.8 11.0 9.0 64 3.5 SE 24 32 13 17 1016.5 1016.5 0.0
05/06:00pm 16.9 11.8 9.1 60 4.0 SE 26 33 14 18 1016.6 1016.6 0.0
05/05:30pm 18.1 12.7 9.5 57 4.5 SSE 28 35 15 19 1016.6 1016.6 0.0
05/05:00pm 18.8 13.7 9.3 54 5.0 SE 26 35 14 19 1016.7 1016.7 0.0
05/04:30pm 19.9 15.9 9.2 50 5.6 ESE 20 30 11 16 1016.8 1016.8 0.0
05/04:00pm 20.2 16.0 9.7 51 5.6 ESE 22 33 12 18 1017.2 1017.2 0.0
05/03:30pm 21.5 17.8 10.0 48 6.2 ESE 20 32 11 17 1017.7 1017.7 0.0
05/03:00pm 20.6 16.5 10.1 51 5.7 E 22 30 12 16 1018.1 1018.1 0.0
05/02:30pm 19.9 15.6 9.2 50 5.6 E 22 32 12 17 1018.5 1018.5 0.0
05/02:00pm 19.8 16.3 10.2 54 5.2 E 19 33 10 18 1019.0 1019.0 0.0
05/01:30pm 20.6 17.4 10.1 51 5.6 SE 17 30 9 16 1019.1 1019.1 0.0
05/01:00pm 19.6 16.7 9.8 53 5.2 ESE 15 30 8 16 1019.4 1019.4 0.0
05/12:30pm 20.0 17.0 10.7 55 5.0 ENE 17 30 9 16 1019.3 1019.3 0.0
05/12:00pm 20.4 17.4 10.5 53 5.4 E 17 28 9 15 1019.6 1019.6 0.0
05/11:30am 20.3 16.7 9.8 51 5.6 E 19 28 10 15 1019.8 1019.8 0.0
05/11:00am 19.7 16.0 9.3 51 5.5 E 19 30 10 16 1020.1 1020.1 0.0
05/10:30am 19.8 16.2 9.7 52 5.4 ENE 19 26 10 14 1020.6 1020.6 0.0
05/10:00am 17.8 14.4 9.2 57 4.5 ENE 17 28 9 15 1020.8 1020.8 0.0
05/09:30am 17.4 13.7 9.6 60 4.1 E 19 28 10 15 1021.4 1021.4 0.0
05/09:00am 17.7 14.4 9.6 59 4.2 ESE 17 26 9 14 1021.5 1021.5 0.0
05/08:30am 17.0 14.1 9.7 62 3.8 ESE 15 22 8 12 1021.4 1021.4 0.0
05/08:00am 16.3 12.6 9.3 63 3.6 ESE 19 24 10 13 1021.1 1021.1 0.0
05/07:30am 15.9 12.1 9.1 64 3.5 SE 19 24 10 13 1021.1 1021.1 0.0
05/07:00am 15.5 12.6 9.8 69 3.0 ESE 15 20 8 11 1021.3 1021.3 0.0
05/06:30am 15.1 12.0 10.3 73 2.5 SE 17 24 9 13 1021.0 1021.0 0.0
05/06:00am 14.5 11.5 10.5 77 2.1 SE 17 22 9 12 1020.9 1020.9 0.0
05/05:30am 14.7 11.9 10.1 74 2.4 SE 15 20 8 11 1021.1 1021.1 0.0
05/05:00am 14.8 12.1 9.0 68 3.0 ESE 13 15 7 8 1020.7 1020.7 0.0
05/04:30am 14.6 12.3 9.0 69 2.8 SE 11 13 6 7 1020.7 1020.7 0.0
05/04:00am 14.7 12.0 8.9 68 2.9 SSE 13 20 7 11 1020.7 1020.7 0.0
05/03:30am 14.8 11.3 8.7 67 3.1 SE 17 26 9 14 1020.8 1020.8 0.0
05/03:00am 14.8 12.4 10.0 73 2.5 SSE 13 20 7 11 1020.8 1020.8 0.0
05/02:30am 14.8 11.1 9.4 70 2.8 SE 19 24 10 13 1020.9 1020.9 0.0
05/02:00am 14.7 11.3 9.3 70 2.8 SSE 17 22 9 12 1021.2 1021.2 0.0
05/01:30am 14.6 11.6 9.2 70 2.7 SSE 15 20 8 11 1021.6 1021.6 0.0
05/01:00am 14.3 11.7 9.3 72 2.6 S 13 19 7 10 1022.3 1022.3 0.0
05/12:30am 13.8 11.8 10.0 78 2.0 SSE 11 13 6 7 1022.5 1022.5 0.0
05/12:00am 13.8 11.8 10.2 79 1.9 S 11 13 6 7 1022.9 1022.9 0.0
 
Date/Time
CDT
Temp
°C
App
Temp
°C
Dew
Point
°C
Rel
Hum
%
Delta-T
°C
Wind Press
QNH
hPa
Press
MSL
hPa
Rain since
9am
mm
Dir  Spd
km/h
Gust
km/h
Spd
kts
Gust
kts
04/11:30pm 13.0 10.9 9.6 80 1.7 S 11 15 6 8 1023.1 1023.1 0.0
04/11:00pm 11.7 9.4 8.9 83 1.4 S 11 11 6 6 1023.0 1023.0 0.0
04/10:30pm 12.5 10.3 9.3 81 1.6 SSW 11 13 6 7 1023.1 1023.1 0.0
04/10:00pm 11.4 8.9 8.4 82 1.5 S 11 11 6 6 1023.0 1023.0 0.0
04/09:30pm 12.2 10.2 8.7 79 1.7 SSE 9 11 5 6 1022.7 1022.7 0.0
04/09:00pm 13.5 11.3 9.2 75 2.2 SSE 11 15 6 8 1022.8 1022.8 0.0
04/08:30pm 14.6 10.9 9.6 72 2.6 SE 19 24 10 13 1022.6 1022.6 0.0
04/08:00pm 15.4 11.1 9.5 68 3.0 SE 22 30 12 16 1022.4 1022.4 0.0
04/07:30pm 16.6 12.5 10.0 65 3.5 SSE 22 32 12 17 1022.4 1022.4 0.0
04/07:00pm 17.6 13.3 9.5 59 4.2 S 22 30 12 16 1022.2 1022.2 0.0
04/06:30pm 17.4 13.2 9.8 61 4.0 SSE 22 32 12 17 1022.1 1022.1 0.0
04/06:00pm 19.0 14.6 10.3 57 4.7 SSE 24 33 13 18 1021.6 1021.6 0.0
04/05:30pm 19.3 15.3 9.2 52 5.3 SSE 20 35 11 19 1021.6 1021.6 0.0
04/05:00pm 19.9 15.4 8.6 48 5.9 SSE 22 32 12 17 1021.6 1021.6 0.0
04/04:30pm 19.4 14.6 9.0 51 5.4 SE 24 35 13 19 1021.9 1021.9 0.0
04/04:00pm 19.6 15.0 9.5 52 5.4 SE 24 33 13 18 1022.5 1022.5 0.0
04/03:30pm 19.3 15.6 10.3 56 4.8 SSE 20 30 11 16 1022.9 1022.9 0.0
04/03:00pm 18.6 14.5 10.2 58 4.5 SE 22 32 12 17 1023.0 1023.0 0.0
04/02:30pm 18.2 15.0 10.1 59 4.3 SSE 17 24 9 13 1023.1 1023.1 0.0
04/02:00pm 19.5 16.3 10.0 54 5.1 SSW 17 26 9 14 1023.3 1023.3 0.0
04/01:30pm 19.2 15.8 9.1 52 5.3 SSW 17 24 9 13 1023.6 1023.6 0.0
04/01:00pm 18.8 16.1 9.0 53 5.1 SSW 13 20 7 11 1024.0 1024.0 0.0
04/12:30pm 18.2 15.1 8.7 54 4.9 S 15 24 8 13 1024.1 1024.1 0.0
04/12:00pm 18.9 14.8 8.8 52 5.2 S 20 28 11 15 1024.1 1024.1 0.0
04/11:30am 18.8 14.9 8.7 52 5.2 S 19 30 10 16 1023.9 1023.9 0.0
04/11:00am 18.5 15.1 9.3 55 4.8 SSE 17 24 9 13 1023.7 1023.7 0.0
04/10:30am 17.2 13.5 9.6 61 4.0 S 19 26 10 14 1023.9 1023.9 0.0
04/10:00am 16.5 12.3 9.7 64 3.6 S 22 30 12 16 1023.9 1023.9 0.0
04/09:30am 17.0 12.5 8.7 58 4.2 SSW 22 32 12 17 1023.9 1023.9 0.0
04/09:00am 17.5 14.0 8.9 57 4.4 SSW 17 22 9 12 1023.8 1023.8 0.0
04/08:30am 15.3 13.6 8.5 64 3.4 SSW 7 13 4 7 1023.9 1023.9 0.0
04/08:00am 14.8 12.8 8.5 66 3.2 S 9 13 5 7 1023.5 1023.5 0.0
04/07:30am 11.8 9.7 8.1 78 1.8 W 9 11 5 6 1023.3 1023.3 0.0
04/07:00am 9.8 8.0 7.2 84 1.2 WNW 6 7 3 4 1023.1 1023.1 0.0

Other formats

Comma delimited format used in spreadsheet applications
http://www.bom.gov.au/fwo/IDS60801/IDS60801.95807.axf

JavaScript Object Notation format (JSON) in row-major order
http://www.bom.gov.au/fwo/IDS60801/IDS60801.95807.json

Data quality

Most of these data are generated automatically and are frequently updated. Quality checks on data are not normally performed. It is possible for incorrect values to appear. Refer to information at About Latest Weather Observations and please check the disclaimer before using these data.